createdAt,value
2019-06-20T00:01:22.694Z,70.43
2019-06-20T00:02:52.680Z,70.03
2019-06-20T00:04:22.661Z,69.82
2019-06-20T00:05:52.651Z,70.03
2019-06-20T00:07:22.630Z,69.62
2019-06-20T00:08:52.610Z,69.62
2019-06-20T00:10:22.621Z,70.12
2019-06-20T00:11:52.580Z,70.12
2019-06-20T00:13:22.560Z,70.32
2019-06-20T00:14:52.544Z,70.53
2019-06-20T00:16:22.540Z,70.16
2019-06-20T00:17:52.510Z,70.26
2019-06-20T00:19:22.491Z,70.66
2019-06-20T00:20:52.490Z,70.86
2019-06-20T00:22:22.459Z,70.76
2019-06-20T00:23:52.440Z,71.36
2019-06-20T00:25:22.442Z,71.87
2019-06-20T00:26:52.403Z,71.67
2019-06-20T00:28:22.403Z,71.67
2019-06-20T00:29:52.370Z,71.67
2019-06-20T00:31:22.400Z,72.07
2019-06-20T00:32:52.341Z,72.07
2019-06-20T00:34:22.319Z,72.17
2019-06-20T00:35:52.317Z,72.17
2019-06-20T00:37:22.291Z,72.17
2019-06-20T00:38:52.273Z,72.57
2019-06-20T00:40:22.259Z,72.57
2019-06-20T00:41:52.238Z,72.37
2019-06-20T00:43:22.223Z,72.87
2019-06-20T00:44:52.254Z,73.07
2019-06-20T00:46:22.190Z,74.08
2019-06-20T00:47:52.168Z,74.38
2019-06-20T00:49:22.150Z,75.79
2019-06-20T00:50:52.147Z,76.23
2019-06-20T00:52:22.118Z,76.63
2019-06-20T00:53:52.124Z,76.93
2019-06-20T00:55:22.080Z,77.53
2019-06-20T00:56:52.068Z,77.94
2019-06-20T00:58:22.049Z,78.23
2019-06-20T00:59:52.028Z,77.63
2019-06-20T01:01:22.018Z,77.94
2019-06-20T01:02:52.004Z,78.27
2019-06-20T01:04:21.981Z,77.87
2019-06-20T01:05:51.979Z,78.67
2019-06-20T01:07:21.938Z,79.28
2019-06-20T01:08:51.926Z,79.99
2019-06-20T01:10:21.908Z,80.19
2019-06-20T01:11:51.899Z,80.29
2019-06-20T01:13:33.181Z,80.29
2019-06-20T01:14:53.557Z,80.73
2019-06-20T01:16:21.847Z,81.13
2019-06-20T01:17:51.820Z,80.63
2019-06-20T01:19:21.797Z,80.73
2019-06-20T01:20:51.849Z,81.13
2019-06-20T01:22:21.767Z,81.03
2019-06-20T01:23:51.748Z,81.63
2019-06-20T01:25:21.737Z,81.13
2019-06-20T01:26:51.727Z,81.23
2019-06-20T01:28:21.696Z,81.43
2019-06-20T01:29:51.688Z,81.73
2019-06-20T01:31:21.677Z,81.33
2019-06-20T01:32:51.646Z,81.63
2019-06-20T01:34:21.628Z,82.04
2019-06-20T01:35:51.631Z,82.54
2019-06-20T01:37:21.612Z,82.58
2019-06-20T01:38:51.576Z,83.18
2019-06-20T01:40:21.558Z,83.28
2019-06-20T01:41:51.559Z,83.08
2019-06-20T01:43:21.527Z,82.98
2019-06-20T01:44:51.506Z,83.28
2019-06-20T01:46:21.497Z,84.29
2019-06-20T01:47:51.474Z,84.59
2019-06-20T01:49:21.456Z,84.53
2019-06-20T01:50:51.439Z,84.03
2019-06-20T01:52:21.436Z,84.13
2019-06-20T01:53:51.407Z,84.63
2019-06-20T01:55:21.386Z,84.83
2019-06-20T01:56:51.387Z,84.94
2019-06-20T01:58:21.346Z,84.53
2019-06-20T01:59:51.336Z,85.03
2019-06-20T02:01:21.327Z,85.24
2019-06-20T02:02:51.297Z,85.14
2019-06-20T02:04:21.277Z,85.14
2019-06-20T02:05:51.265Z,85.14
2019-06-20T02:07:21.267Z,84.83
2019-06-20T02:08:51.227Z,85.74
2019-06-20T02:10:21.215Z,85.94
2019-06-20T02:11:51.204Z,85.94
2019-06-20T02:13:21.175Z,86.24
2019-06-20T02:14:51.162Z,85.94
2019-06-20T02:16:21.140Z,86.18
2019-06-20T02:17:51.136Z,86.29
2019-06-20T02:19:21.106Z,86.79
2019-06-20T02:20:51.092Z,86.69
2019-06-20T02:22:21.086Z,86.99
2019-06-20T02:23:51.054Z,86.89
2019-06-20T02:25:21.034Z,87.09
2019-06-20T02:26:51.028Z,87.19
2019-06-20T02:28:21.005Z,87.49
2019-06-20T02:29:50.985Z,87.60
2019-06-20T02:31:20.972Z,87.49
2019-06-20T02:32:50.956Z,87.70
2019-06-20T02:34:20.949Z,87.74
2019-06-20T02:35:50.915Z,88.04
2019-06-20T02:37:20.906Z,88.24
2019-06-20T02:38:50.877Z,88.24
2019-06-20T02:40:20.854Z,88.24
2019-06-20T02:41:50.853Z,88.10
2019-06-20T02:43:20.824Z,88.10
2019-06-20T02:44:50.809Z,87.70
2019-06-20T02:46:20.783Z,87.74
2019-06-20T02:47:50.786Z,88.00
2019-06-20T02:49:20.754Z,88.14
2019-06-20T02:50:50.737Z,88.45
2019-06-20T02:52:20.724Z,89.15
2019-06-20T02:53:50.695Z,89.45
2019-06-20T02:55:20.675Z,90.16
2019-06-20T02:56:50.654Z,87.63
2019-06-20T02:58:20.654Z,90.46
2019-06-20T02:59:50.623Z,91.21
2019-06-20T03:01:20.609Z,91.01
2019-06-20T03:02:50.610Z,91.01
2019-06-20T03:04:20.563Z,90.91
2019-06-20T03:05:50.546Z,91.61
2019-06-20T03:07:20.542Z,92.97
2019-06-20T03:08:50.512Z,92.66
2019-06-20T03:10:20.493Z,93.27
2019-06-20T03:11:50.472Z,92.97
2019-06-20T03:13:20.480Z,92.66
2019-06-20T03:14:50.433Z,92.57
2019-06-20T03:16:20.422Z,92.86
2019-06-20T03:17:50.411Z,92.66
2019-06-20T03:19:20.381Z,92.86
2019-06-20T03:20:50.362Z,93.57
2019-06-20T03:22:20.372Z,93.57
2019-06-20T03:23:50.333Z,93.48
2019-06-20T03:25:20.310Z,92.97
2019-06-20T03:26:50.291Z,93.07
2019-06-20T03:28:20.302Z,93.48
2019-06-20T03:29:50.257Z,93.27
2019-06-20T03:31:20.242Z,93.37
2019-06-20T03:32:50.242Z,94.38
2019-06-20T03:34:20.208Z,94.23
2019-06-20T03:35:50.190Z,94.32
2019-06-20T03:37:20.174Z,94.32
2019-06-20T03:38:50.196Z,94.93
2019-06-20T03:40:20.129Z,95.23
2019-06-20T03:41:50.111Z,94.83
2019-06-20T03:43:20.101Z,94.63
2019-06-20T03:45:01.726Z,94.98
2019-06-20T03:46:21.572Z,95.07
2019-06-20T03:47:50.110Z,94.98
2019-06-20T03:49:20.022Z,94.78
2019-06-20T03:50:49.999Z,94.78
2019-06-20T03:52:19.980Z,94.87
2019-06-20T03:53:49.976Z,94.57
2019-06-20T03:55:19.951Z,95.48
2019-06-20T03:56:49.933Z,95.38
2019-06-20T03:58:19.919Z,95.48
2019-06-20T03:59:49.894Z,95.58
2019-06-20T04:01:19.870Z,95.48
2019-06-20T04:02:49.870Z,95.23
2019-06-20T04:04:19.830Z,95.03
2019-06-20T04:05:49.809Z,94.93
2019-06-20T04:07:19.790Z,94.73
2019-06-20T04:08:49.789Z,94.63
2019-06-20T04:10:19.766Z,94.32
2019-06-20T04:11:49.769Z,94.32
2019-06-20T04:13:19.728Z,94.32
2019-06-20T04:14:49.706Z,94.43
2019-06-20T04:16:19.688Z,94.23
2019-06-20T04:17:49.658Z,94.23
2019-06-20T04:19:19.658Z,94.12
2019-06-20T04:20:49.622Z,93.82
2019-06-20T04:22:19.597Z,93.41
2019-06-20T04:23:49.626Z,93.32
2019-06-20T04:25:19.578Z,93.72
2019-06-20T04:26:49.546Z,93.72
2019-06-20T04:28:19.544Z,93.72
2019-06-20T04:29:49.556Z,93.82
2019-06-20T04:31:19.513Z,94.23
2019-06-20T04:32:49.476Z,93.92
2019-06-20T04:34:19.470Z,94.12
2019-06-20T04:35:49.443Z,93.82
2019-06-20T04:37:19.415Z,94.23
2019-06-20T04:38:49.428Z,93.92
2019-06-20T04:40:19.459Z,93.62
2019-06-20T04:41:49.357Z,93.62
2019-06-20T04:43:19.367Z,93.72
2019-06-20T04:44:49.337Z,93.52
2019-06-20T04:46:19.304Z,94.23
2019-06-20T04:47:49.283Z,94.32
2019-06-20T04:49:19.892Z,94.23
2019-06-20T04:50:49.246Z,94.02
2019-06-20T04:52:19.227Z,93.32
2019-06-20T04:53:49.225Z,93.72
2019-06-20T04:55:19.194Z,93.62
2019-06-20T04:56:49.189Z,93.82
2019-06-20T04:58:19.161Z,94.27
2019-06-20T04:59:49.143Z,95.07
2019-06-20T05:01:19.126Z,95.28
2019-06-20T05:02:49.095Z,95.68
2019-06-20T05:04:19.085Z,95.48
2019-06-20T05:05:49.063Z,95.48
2019-06-20T05:07:19.044Z,95.48
2019-06-20T05:08:49.025Z,94.98
2019-06-20T05:10:19.004Z,94.67
2019-06-20T05:11:48.984Z,94.78
2019-06-20T05:13:18.967Z,94.98
2019-06-20T05:14:48.953Z,95.14
2019-06-20T05:16:18.928Z,94.12
2019-06-20T05:17:48.904Z,94.23
2019-06-20T05:19:18.899Z,94.23
2019-06-20T05:20:48.864Z,94.23
2019-06-20T05:22:18.845Z,94.32
2019-06-20T05:23:48.858Z,94.02
2019-06-20T05:25:18.802Z,93.92
2019-06-20T05:26:48.792Z,93.92
2019-06-20T05:28:18.774Z,93.92
2019-06-20T05:29:48.753Z,94.02
2019-06-20T05:31:18.733Z,94.02
2019-06-20T05:32:48.713Z,94.28
2019-06-20T05:34:18.701Z,94.08
2019-06-20T05:35:48.671Z,94.18
2019-06-20T05:37:18.653Z,94.08
2019-06-20T05:38:48.634Z,94.18
2019-06-20T05:40:18.632Z,94.08
2019-06-20T05:41:48.599Z,93.68
2019-06-20T05:43:18.582Z,93.68
2019-06-20T05:44:48.575Z,93.48
2019-06-20T05:46:18.542Z,94.08
2019-06-20T05:47:49.664Z,93.77
2019-06-20T05:49:19.039Z,93.43
2019-06-20T05:50:48.579Z,93.63
2019-06-20T05:52:18.461Z,93.73
2019-06-20T05:53:48.454Z,93.79
2019-06-20T05:55:18.433Z,93.29
2019-06-20T05:56:48.422Z,93.08
2019-06-20T05:58:18.392Z,92.63
2019-06-20T05:59:48.425Z,91.83
2019-06-20T06:01:18.352Z,91.22
2019-06-20T06:02:48.381Z,91.28
2019-06-20T06:04:18.322Z,91.08
2019-06-20T06:05:48.311Z,91.89
2019-06-20T06:07:18.292Z,91.54
2019-06-20T06:08:48.271Z,90.64
2019-06-20T06:10:18.261Z,90.64
2019-06-20T06:11:48.260Z,90.44
2019-06-20T06:13:18.231Z,90.94
2019-06-20T06:14:49.097Z,91.19
2019-06-20T06:16:26.176Z,91.39
2019-06-20T06:17:49.669Z,91.30
2019-06-20T06:19:18.150Z,91.30
2019-06-20T06:20:48.140Z,90.75
2019-06-20T06:22:18.109Z,91.15
2019-06-20T06:23:48.097Z,90.85
2019-06-20T06:25:18.100Z,90.75
2019-06-20T06:26:48.059Z,90.55
2019-06-20T06:28:18.052Z,90.45
2019-06-20T06:29:48.039Z,91.05
2019-06-20T06:31:18.009Z,91.15
2019-06-20T06:32:47.998Z,91.55
2019-06-20T06:34:21.172Z,91.46
2019-06-20T06:35:47.972Z,90.45
2019-06-20T06:37:17.938Z,91.09
2019-06-20T06:38:47.926Z,91.09
2019-06-20T06:40:17.928Z,91.09
2019-06-20T06:41:47.889Z,90.99
2019-06-20T06:43:17.870Z,90.69
2019-06-20T06:44:47.879Z,90.55
2019-06-20T06:46:17.837Z,90.34
2019-06-20T06:47:47.831Z,89.64
2019-06-20T06:49:17.807Z,89.75
2019-06-20T06:50:47.797Z,89.34
2019-06-20T06:52:17.768Z,89.24
2019-06-20T06:53:47.749Z,89.60
2019-06-20T06:55:17.750Z,89.90
2019-06-20T06:56:47.717Z,89.60
2019-06-20T06:58:17.709Z,83.06
2019-06-20T06:59:47.727Z,85.17
2019-06-20T07:01:17.676Z,82.16
2019-06-20T07:02:47.662Z,82.76
2019-06-20T07:04:17.637Z,83.97
2019-06-20T07:05:47.628Z,81.85
2019-06-20T07:07:17.608Z,82.66
2019-06-20T07:08:47.622Z,82.97
2019-06-20T07:10:17.727Z,84.37
2019-06-20T07:11:47.547Z,82.36
2019-06-20T07:13:17.535Z,83.47
2019-06-20T07:14:47.522Z,84.11
2019-06-20T07:16:17.506Z,84.51
2019-06-20T07:17:47.486Z,84.71
2019-06-20T07:19:17.466Z,85.11
2019-06-20T07:20:47.462Z,84.21
2019-06-20T07:22:17.425Z,84.01
2019-06-20T07:23:47.405Z,84.41
2019-06-20T07:25:17.394Z,84.11
2019-06-20T07:26:47.388Z,81.19
2019-06-20T07:28:17.355Z,81.73
2019-06-20T07:29:47.336Z,84.31
2019-06-20T07:31:17.344Z,85.42
2019-06-20T07:32:47.313Z,86.16
2019-06-20T07:34:17.285Z,84.65
2019-06-20T07:35:47.284Z,85.16
2019-06-20T07:37:17.260Z,86.12
2019-06-20T07:38:47.236Z,86.72
2019-06-20T07:40:17.216Z,87.02
2019-06-20T07:41:47.205Z,87.53
2019-06-20T07:43:17.185Z,87.73
2019-06-20T07:44:47.166Z,87.29
2019-06-20T07:46:17.152Z,86.99
2019-06-20T07:47:47.135Z,86.28
2019-06-20T07:49:17.105Z,86.54
2019-06-20T07:50:47.094Z,86.65
2019-06-20T07:52:17.084Z,86.00
2019-06-20T07:53:47.054Z,85.19
2019-06-20T07:55:17.035Z,85.70
2019-06-20T07:56:47.036Z,84.35
2019-06-20T07:58:17.009Z,84.25
2019-06-20T07:59:46.993Z,85.46
2019-06-20T08:01:16.988Z,83.81
2019-06-20T08:02:46.957Z,83.71
2019-06-20T08:04:16.936Z,84.31
2019-06-20T08:05:46.929Z,82.76
2019-06-20T08:07:16.915Z,82.26
2019-06-20T08:08:46.883Z,82.97
2019-06-20T08:10:16.872Z,83.57
2019-06-20T08:11:46.880Z,81.87
2019-06-20T08:13:16.836Z,82.67
2019-06-20T08:14:46.823Z,82.26
2019-06-20T08:16:16.818Z,82.67
2019-06-20T08:17:46.784Z,82.82
2019-06-20T08:19:16.774Z,84.03
2019-06-20T08:20:46.753Z,83.43
2019-06-20T08:22:16.742Z,83.63
2019-06-20T08:23:46.726Z,81.73
2019-06-20T08:25:16.706Z,81.23
2019-06-20T08:26:46.702Z,81.93
2019-06-20T08:28:16.671Z,82.59
2019-06-20T08:29:46.662Z,79.78
2019-06-20T08:31:16.634Z,80.88
2019-06-20T08:32:46.633Z,81.18
2019-06-20T08:34:16.604Z,80.98
2019-06-20T08:35:46.582Z,78.58
2019-06-20T08:37:16.583Z,78.58
2019-06-20T08:38:46.626Z,78.08
2019-06-20T08:40:16.534Z,78.14
2019-06-20T08:41:46.522Z,76.24
2019-06-20T08:43:16.553Z,76.74
2019-06-20T08:44:46.483Z,75.84
2019-06-20T08:46:16.466Z,77.44
2019-06-20T08:47:46.462Z,77.54
2019-06-20T08:49:16.433Z,77.04
2019-06-20T08:50:46.412Z,76.94
2019-06-20T08:52:16.411Z,76.40
2019-06-20T08:53:46.387Z,75.40
2019-06-20T08:55:16.362Z,78.36
2019-06-20T08:56:46.359Z,76.67
2019-06-20T08:58:16.332Z,77.06
2019-06-20T08:59:46.314Z,78.43
2019-06-20T09:01:16.361Z,76.03
2019-06-20T09:02:46.294Z,75.43
2019-06-20T09:04:16.263Z,74.83
2019-06-20T09:05:46.253Z,74.03
2019-06-20T09:07:16.250Z,74.63
2019-06-20T09:08:46.214Z,72.83
2019-06-20T09:10:16.214Z,72.86
2019-06-20T09:11:46.185Z,72.66
2019-06-20T09:13:16.191Z,73.16
2019-06-20T09:14:46.151Z,72.96
2019-06-20T09:16:24.390Z,73.96
2019-06-20T09:17:47.620Z,73.86
2019-06-20T09:19:16.101Z,73.63
2019-06-20T09:20:46.082Z,74.03
2019-06-20T09:22:16.073Z,74.53
2019-06-20T09:23:46.054Z,75.99
2019-06-20T09:25:16.032Z,74.79
2019-06-20T09:26:46.012Z,73.29
2019-06-20T09:28:16.010Z,73.59
2019-06-20T09:29:45.986Z,74.66
2019-06-20T09:31:15.961Z,74.76
2019-06-20T09:32:45.962Z,74.16
2019-06-20T09:34:15.943Z,72.22
2019-06-20T09:35:45.921Z,73.92
2019-06-20T09:37:15.986Z,70.72
2019-06-20T09:38:45.881Z,72.22
2019-06-20T09:40:26.660Z,72.49
2019-06-20T09:41:45.841Z,74.08
2019-06-20T09:43:27.142Z,72.19
2019-06-20T09:44:47.312Z,70.89
2019-06-20T09:46:15.800Z,72.89
2019-06-20T09:47:45.803Z,70.49
2019-06-20T09:49:15.762Z,72.78
2019-06-20T09:50:45.743Z,72.29
2019-06-20T09:52:15.740Z,71.59
2019-06-20T09:53:45.721Z,73.45
2019-06-20T09:55:15.692Z,69.59
2019-06-20T09:56:48.530Z,71.89
2019-06-20T09:58:15.782Z,67.19
2019-06-20T09:59:59.132Z,68.82
2019-06-20T10:01:17.122Z,71.22
2019-06-20T10:02:47.137Z,70.62
2019-06-20T10:04:15.592Z,72.22
2019-06-20T10:05:47.159Z,68.93
2019-06-20T10:07:15.560Z,69.02
2019-06-20T10:08:46.604Z,70.53
2019-06-20T10:10:15.521Z,71.12
2019-06-20T10:11:46.551Z,72.82
2019-06-20T10:13:15.520Z,67.03
2019-06-20T10:14:46.480Z,70.46
2019-06-20T10:16:15.461Z,72.26
2019-06-20T10:17:45.721Z,68.16
2019-06-20T10:19:15.429Z,67.86
2019-06-20T10:20:46.116Z,68.56
2019-06-20T10:22:15.391Z,68.46
2019-06-20T10:23:46.251Z,65.76
2019-06-20T10:25:15.350Z,68.66
2019-06-20T10:26:46.630Z,68.56
2019-06-20T10:28:15.332Z,67.76
2019-06-20T10:29:46.198Z,67.36
2019-06-20T10:31:15.291Z,67.36
2019-06-20T10:32:46.705Z,68.43
2019-06-20T10:34:15.270Z,70.62
2019-06-20T10:35:45.878Z,72.39
2019-06-20T10:37:15.219Z,66.50
2019-06-20T10:38:46.438Z,68.49
2019-06-20T10:40:15.199Z,69.06
2019-06-20T10:41:46.614Z,69.26
2019-06-20T10:43:15.162Z,69.76
2019-06-20T10:44:45.770Z,70.65
2019-06-20T10:46:15.131Z,68.26
2019-06-20T10:47:45.772Z,63.47
2019-06-20T10:49:15.101Z,65.10
2019-06-20T10:50:45.691Z,65.70
2019-06-20T10:52:15.060Z,63.63
2019-06-20T10:53:45.655Z,64.63
2019-06-20T10:55:15.025Z,65.63
2019-06-20T10:56:45.792Z,64.43
2019-06-20T10:58:14.981Z,65.13
2019-06-20T10:59:46.437Z,65.23
2019-06-20T11:01:14.952Z,65.90
2019-06-20T11:02:45.031Z,65.50
2019-06-20T11:04:14.934Z,66.60
2019-06-20T11:05:45.539Z,67.10
2019-06-20T11:07:14.894Z,62.30
2019-06-20T11:08:45.147Z,63.90
2019-06-20T11:10:14.851Z,62.40
2019-06-20T11:11:44.877Z,64.63
2019-06-20T11:13:14.822Z,65.60
2019-06-20T11:14:46.007Z,68.49
2019-06-20T11:16:14.787Z,68.59
2019-06-20T11:17:46.187Z,68.79
2019-06-20T11:19:14.772Z,68.99
2019-06-20T11:20:44.755Z,68.10
2019-06-20T11:22:14.729Z,66.86
2019-06-20T11:23:45.255Z,67.46
2019-06-20T11:25:14.691Z,66.27
2019-06-20T11:26:45.881Z,63.67
2019-06-20T11:28:14.661Z,64.57
2019-06-20T11:29:46.479Z,67.76
2019-06-20T11:31:14.634Z,69.26
2019-06-20T11:32:45.734Z,68.26
2019-06-20T11:34:14.599Z,66.33
2019-06-20T11:35:44.571Z,67.93
2019-06-20T11:37:14.560Z,67.73
2019-06-20T11:38:44.591Z,65.64
2019-06-20T11:40:14.530Z,66.53
2019-06-20T11:41:44.503Z,68.13
2019-06-20T11:43:14.485Z,68.73
2019-06-20T11:44:44.479Z,66.43
2019-06-20T11:46:14.451Z,65.94
2019-06-20T11:47:44.431Z,65.83
2019-06-20T11:49:14.430Z,64.71
2019-06-20T11:50:44.404Z,66.00
2019-06-20T11:52:14.381Z,65.31
2019-06-20T11:53:44.439Z,66.30
2019-06-20T11:55:14.438Z,64.71
2019-06-20T11:56:44.341Z,61.71
2019-06-20T11:58:14.321Z,60.45
2019-06-20T11:59:44.328Z,61.65
2019-06-20T12:01:14.281Z,61.68
2019-06-20T12:02:45.890Z,62.27
2019-06-20T12:04:14.261Z,64.47
2019-06-20T12:05:44.854Z,67.23
2019-06-20T12:07:14.211Z,66.93
2019-06-20T12:08:45.225Z,67.50
2019-06-20T12:10:14.180Z,64.28
2019-06-20T12:11:44.530Z,62.29
2019-06-20T12:13:14.248Z,64.04
2019-06-20T12:14:44.313Z,64.45
2019-06-20T12:16:14.110Z,65.44
2019-06-20T12:17:45.355Z,66.34
2019-06-20T12:19:14.081Z,62.55
2019-06-20T12:20:44.485Z,62.15
2019-06-20T12:22:14.042Z,62.55
2019-06-20T12:23:44.921Z,59.36
2019-06-20T12:25:14.020Z,56.87
2019-06-20T12:26:44.385Z,58.70
2019-06-20T12:28:13.981Z,60.89
2019-06-20T12:29:44.356Z,61.58
2019-06-20T12:31:19.465Z,59.92
2019-06-20T12:32:44.713Z,59.02
2019-06-20T12:34:13.900Z,61.32
2019-06-20T12:35:44.469Z,63.64
2019-06-20T12:37:13.881Z,64.24
2019-06-20T12:38:43.851Z,63.74
2019-06-20T12:40:13.851Z,64.44
2019-06-20T12:41:43.822Z,62.34
2019-06-20T12:43:13.815Z,62.64
2019-06-20T12:44:44.169Z,64.64
2019-06-20T12:46:13.785Z,66.06
2019-06-20T12:47:43.949Z,66.13
2019-06-20T12:49:13.746Z,64.07
2019-06-20T12:50:45.019Z,66.17
2019-06-20T12:52:13.700Z,64.87
2019-06-20T12:53:44.143Z,65.26
2019-06-20T12:55:13.670Z,68.16
2019-06-20T12:56:44.010Z,68.13
2019-06-20T12:58:13.631Z,67.03
2019-06-20T12:59:44.568Z,67.70
2019-06-20T13:01:13.612Z,67.50
2019-06-20T13:02:43.941Z,67.00
2019-06-20T13:04:13.560Z,64.90
2019-06-20T13:05:44.839Z,64.78
2019-06-20T13:07:13.531Z,67.47
2019-06-20T13:08:43.647Z,65.64
2019-06-20T13:10:13.519Z,64.61
2019-06-20T13:11:44.834Z,63.09
2019-06-20T13:13:13.464Z,61.90
2019-06-20T13:14:43.444Z,62.86
2019-06-20T13:16:13.451Z,62.37
2019-06-20T13:17:44.843Z,63.82
2019-06-20T13:19:13.412Z,61.80
2019-06-20T13:20:44.251Z,61.68
2019-06-20T13:22:13.353Z,56.61
2019-06-20T13:23:43.341Z,54.82
2019-06-20T13:25:13.351Z,55.91
2019-06-20T13:26:43.916Z,56.51
2019-06-20T13:28:13.314Z,55.22
2019-06-20T13:29:43.271Z,53.53
2019-06-20T13:31:13.283Z,55.12
2019-06-20T13:32:43.915Z,55.12
2019-06-20T13:34:13.231Z,53.93
2019-06-20T13:35:43.771Z,53.63
2019-06-20T13:37:15.535Z,55.52
2019-06-20T13:38:44.456Z,54.40
2019-06-20T13:40:13.208Z,56.76
2019-06-20T13:41:43.284Z,55.34
2019-06-20T13:43:13.130Z,53.16
2019-06-20T13:44:44.118Z,55.04
2019-06-20T13:46:13.110Z,52.19
2019-06-20T13:47:43.140Z,56.76
2019-06-20T13:49:13.063Z,56.04
2019-06-20T13:50:43.519Z,54.62
2019-06-20T13:52:13.033Z,53.73
2019-06-20T13:53:44.200Z,54.79
2019-06-20T13:55:13.023Z,55.96
2019-06-20T13:56:43.642Z,56.13
2019-06-20T13:58:12.968Z,51.35
2019-06-20T13:59:43.417Z,53.63
2019-06-20T14:01:12.946Z,52.46
2019-06-20T14:02:44.541Z,54.05
2019-06-20T14:04:12.892Z,49.87
2019-06-20T14:05:42.906Z,49.27
2019-06-20T14:07:12.869Z,49.87
2019-06-20T14:08:44.234Z,53.03
2019-06-20T14:10:12.826Z,49.07
2019-06-20T14:11:43.218Z,48.16
2019-06-20T14:13:19.005Z,50.90
2019-06-20T14:14:43.990Z,49.20
2019-06-20T14:16:12.783Z,46.78
2019-06-20T14:17:43.224Z,46.59
2019-06-20T14:19:12.733Z,49.30
2019-06-20T14:20:43.632Z,45.19
2019-06-20T14:22:12.713Z,46.95
2019-06-20T14:23:44.313Z,42.08
2019-06-20T14:25:12.674Z,44.15
2019-06-20T14:26:44.718Z,40.29
2019-06-20T14:28:12.658Z,38.71
2019-06-20T14:29:43.705Z,38.04
2019-06-20T14:31:12.624Z,36.44
2019-06-20T14:32:43.262Z,34.44
2019-06-20T14:34:12.587Z,32.94
2019-06-20T14:35:44.033Z,34.39
2019-06-20T14:37:12.564Z,33.62
2019-06-20T14:38:43.944Z,32.05
2019-06-20T14:40:12.538Z,32.08
2019-06-20T14:41:43.669Z,32.16
2019-06-20T14:43:12.494Z,35.28
2019-06-20T14:44:44.102Z,36.16
2019-06-20T14:46:12.479Z,35.77
2019-06-20T14:47:42.449Z,35.63
2019-06-20T14:49:12.426Z,35.96
2019-06-20T14:50:43.843Z,31.14
2019-06-20T14:52:12.410Z,31.24
2019-06-20T14:53:43.892Z,34.53
2019-06-20T14:55:12.370Z,30.14
2019-06-20T14:56:44.469Z,29.06
2019-06-20T14:58:12.335Z,31.19
2019-06-20T14:59:43.163Z,29.79
2019-06-20T15:01:12.306Z,31.89
2019-06-20T15:02:43.783Z,30.21
2019-06-20T15:04:12.277Z,29.99
2019-06-20T15:05:42.258Z,27.36
2019-06-20T15:07:12.258Z,27.39
2019-06-20T15:08:42.228Z,28.61
2019-06-20T15:10:12.218Z,29.19
2019-06-20T15:11:42.226Z,32.76
2019-06-20T15:13:12.188Z,36.74
2019-06-20T15:14:42.178Z,39.27
2019-06-20T15:16:12.162Z,37.95
2019-06-20T15:17:42.149Z,40.37
2019-06-20T15:19:12.129Z,40.21
2019-06-20T15:20:42.111Z,42.60
2019-06-20T15:22:12.109Z,46.26
2019-06-20T15:23:42.083Z,45.13
2019-06-20T15:25:12.070Z,43.07
2019-06-20T15:26:42.062Z,43.61
2019-06-20T15:28:12.032Z,43.75
2019-06-20T15:29:42.011Z,45.79
2019-06-20T15:31:11.998Z,47.71
2019-06-20T15:32:55.577Z,45.74
2019-06-20T15:34:13.461Z,46.38
2019-06-20T15:35:41.952Z,47.70
2019-06-20T15:37:11.959Z,48.22
2019-06-20T15:38:41.935Z,49.04
2019-06-20T15:40:22.698Z,50.45
2019-06-20T15:41:41.878Z,51.25
2019-06-20T15:43:11.876Z,52.74
2019-06-20T15:44:41.853Z,53.76
2019-06-20T15:46:11.837Z,53.96
2019-06-20T15:47:41.828Z,55.65
2019-06-20T15:49:16.002Z,56.75
2019-06-20T15:50:41.780Z,59.51
2019-06-20T15:52:11.778Z,54.02
2019-06-20T15:53:41.749Z,50.53
2019-06-20T15:55:11.738Z,42.74
2019-06-20T15:56:41.716Z,46.20
2019-06-20T15:58:11.711Z,42.57
2019-06-20T15:59:42.244Z,38.78
2019-06-20T16:01:11.678Z,39.61
2019-06-20T16:02:41.659Z,38.78
2019-06-20T16:04:11.640Z,39.62
2019-06-20T16:05:41.618Z,34.23
2019-06-20T16:07:11.608Z,35.58
2019-06-20T16:08:41.614Z,34.97
2019-06-20T16:10:11.569Z,37.89
2019-06-20T16:11:41.566Z,36.62
2019-06-20T16:13:11.550Z,35.66
2019-06-20T16:14:41.552Z,38.42
2019-06-20T16:16:11.501Z,39.00
2019-06-20T16:17:41.514Z,37.75
2019-06-20T16:19:11.481Z,39.15
2019-06-20T16:20:41.460Z,42.33
2019-06-20T16:22:11.450Z,45.02
2019-06-20T16:23:41.440Z,46.63
2019-06-20T16:25:11.418Z,50.09
2019-06-20T16:26:41.401Z,52.86
2019-06-20T16:28:11.391Z,55.32
2019-06-20T16:29:41.361Z,56.44
2019-06-20T16:31:25.781Z,58.36
2019-06-20T16:32:42.840Z,58.56
2019-06-20T16:34:11.315Z,58.16
2019-06-20T16:35:41.301Z,58.45
2019-06-20T16:37:11.290Z,58.88
2019-06-20T16:38:41.282Z,58.98
2019-06-20T16:40:11.253Z,58.91
2019-06-20T16:41:41.232Z,58.11
2019-06-20T16:43:11.223Z,59.53
2019-06-20T16:44:41.202Z,60.86
2019-06-20T16:46:11.191Z,61.25
2019-06-20T16:47:41.171Z,60.79
2019-06-20T16:49:11.168Z,61.22
2019-06-20T16:50:41.132Z,61.85
2019-06-20T16:52:11.114Z,62.70
2019-06-20T16:53:41.149Z,65.03
2019-06-20T16:55:11.085Z,66.66
2019-06-20T16:56:41.072Z,65.59
2019-06-20T16:58:11.133Z,66.49
2019-06-20T16:59:41.044Z,65.89
2019-06-20T17:01:11.023Z,66.89
2019-06-20T17:02:41.006Z,66.89
2019-06-20T17:04:11.001Z,67.52
2019-06-20T17:05:40.973Z,67.52
2019-06-20T17:07:10.958Z,67.86
2019-06-20T17:08:40.952Z,68.29
2019-06-20T17:10:10.924Z,69.76
2019-06-20T17:11:40.902Z,71.50
2019-06-20T17:13:10.912Z,72.83
2019-06-20T17:14:40.885Z,73.24
2019-06-20T17:16:10.902Z,73.47
2019-06-20T17:17:40.833Z,73.77
2019-06-20T17:19:10.827Z,73.21
2019-06-20T17:20:40.803Z,74.31
2019-06-20T17:22:10.782Z,75.21
2019-06-20T17:23:40.772Z,76.02
2019-06-20T17:25:10.755Z,75.42
2019-06-20T17:26:40.732Z,75.42
2019-06-20T17:28:10.712Z,76.82
2019-06-20T17:29:40.718Z,76.62
2019-06-20T17:31:10.681Z,74.44
2019-06-20T17:32:40.668Z,75.51
2019-06-20T17:34:10.652Z,77.02
2019-06-20T17:35:40.632Z,78.33
2019-06-20T17:37:10.679Z,79.87
2019-06-20T17:38:40.612Z,80.77
2019-06-20T17:40:10.583Z,82.42
2019-06-20T17:41:54.442Z,82.52
2019-06-20T17:43:12.041Z,83.23
2019-06-20T17:44:40.545Z,83.03
2019-06-20T17:46:10.522Z,83.63
2019-06-20T17:47:40.500Z,84.03
2019-06-20T17:49:10.494Z,84.97
2019-06-20T17:50:40.463Z,84.71
2019-06-20T17:52:10.442Z,85.42
2019-06-20T17:53:40.423Z,86.43
2019-06-20T17:55:10.421Z,87.02
2019-06-20T17:56:40.393Z,86.93
2019-06-20T17:58:10.371Z,86.26
2019-06-20T17:59:40.361Z,85.76
2019-06-20T18:01:10.330Z,86.57
2019-06-20T18:02:40.313Z,87.67
2019-06-20T18:04:14.014Z,87.57
2019-06-20T18:05:40.293Z,86.87
2019-06-20T18:07:10.260Z,87.62
2019-06-20T18:08:40.251Z,88.96
2019-06-20T18:10:10.242Z,89.57
2019-06-20T18:11:40.210Z,89.81
2019-06-20T18:13:10.344Z,89.51
2019-06-20T18:14:40.235Z,90.11
2019-06-20T18:16:24.200Z,90.22
2019-06-20T18:17:41.642Z,89.11
2019-06-20T18:19:10.120Z,88.81
2019-06-20T18:20:40.107Z,90.42
2019-06-20T18:22:10.100Z,89.81
2019-06-20T18:23:40.075Z,89.61
2019-06-20T18:25:10.061Z,89.06
2019-06-20T18:26:40.036Z,88.76
2019-06-20T18:28:10.111Z,87.60
2019-06-20T18:29:40.040Z,88.99
2019-06-20T18:31:09.984Z,89.94
2019-06-20T18:32:39.965Z,90.55
2019-06-20T18:34:10.038Z,90.75
2019-06-20T18:35:39.941Z,90.95
2019-06-20T18:37:09.899Z,90.65
2019-06-20T18:38:39.889Z,91.55
2019-06-20T18:40:09.869Z,91.96
2019-06-20T18:41:39.851Z,91.11
2019-06-20T18:43:09.833Z,91.11
2019-06-20T18:44:39.850Z,90.50
2019-06-20T18:46:09.789Z,91.01
2019-06-20T18:47:39.780Z,91.41
2019-06-20T18:49:09.833Z,92.22
2019-06-20T18:50:39.741Z,92.42
2019-06-20T18:52:09.721Z,92.27
2019-06-20T18:53:39.698Z,91.47
2019-06-20T18:55:09.698Z,90.56
2019-06-20T18:56:39.679Z,91.06
2019-06-20T18:58:09.687Z,90.32
2019-06-20T18:59:39.658Z,89.81
2019-06-20T19:01:09.607Z,89.31
2019-06-20T19:02:39.588Z,89.41
2019-06-20T19:04:09.574Z,88.26
2019-06-20T19:05:41.194Z,88.76
2019-06-20T19:07:09.528Z,88.86
2019-06-20T19:08:39.517Z,89.17
2019-06-20T19:10:09.503Z,89.17
2019-06-20T19:11:39.478Z,89.37
2019-06-20T19:13:12.799Z,88.66
2019-06-20T19:14:39.447Z,89.06
2019-06-20T19:16:09.430Z,89.51
2019-06-20T19:17:39.405Z,89.75
2019-06-20T19:19:09.387Z,90.46